createdAt,value
2018-11-23T00:01:54.057Z,37.73
2018-11-23T00:04:21.448Z,37.27
2018-11-23T00:06:48.868Z,40.00
2018-11-23T00:09:16.294Z,44.33
2018-11-23T00:11:43.716Z,39.27
2018-11-23T00:14:11.124Z,43.93
2018-11-23T00:16:38.559Z,40.13
2018-11-23T00:19:05.997Z,38.60
2018-11-23T00:21:33.439Z,38.30
2018-11-23T00:24:00.864Z,35.70
2018-11-23T00:26:28.311Z,37.40
2018-11-23T00:28:55.717Z,34.30
2018-11-23T00:31:23.133Z,33.43
2018-11-23T00:33:50.543Z,36.97
2018-11-23T00:36:17.962Z,33.27
2018-11-23T00:38:45.374Z,34.57
2018-11-23T00:41:12.798Z,39.40
2018-11-23T00:43:40.196Z,35.30
2018-11-23T00:46:07.622Z,35.53
2018-11-23T00:48:35.016Z,38.40
2018-11-23T00:51:02.447Z,37.70
2018-11-23T00:53:29.855Z,39.33
2018-11-23T00:55:57.243Z,38.20
2018-11-23T00:58:24.687Z,38.43
2018-11-23T01:00:52.105Z,36.33
2018-11-23T01:03:19.537Z,37.50
2018-11-23T01:05:46.942Z,34.60
2018-11-23T01:08:14.350Z,35.57
2018-11-23T01:10:41.768Z,34.97
2018-11-23T01:13:09.194Z,35.17
2018-11-23T01:15:36.608Z,37.90
2018-11-23T01:18:04.045Z,37.83
2018-11-23T01:20:31.439Z,41.80
2018-11-23T01:22:58.868Z,39.33
2018-11-23T01:25:26.260Z,36.43
2018-11-23T01:27:53.678Z,37.80
2018-11-23T01:30:21.084Z,36.00
2018-11-23T01:32:48.486Z,36.80
2018-11-23T01:35:15.941Z,39.13
2018-11-23T01:37:43.331Z,39.67
2018-11-23T01:40:10.756Z,40.00
2018-11-23T01:42:38.180Z,36.07
2018-11-23T01:45:06.646Z,36.80
2018-11-23T01:47:34.071Z,39.23
2018-11-23T01:50:01.516Z,35.67
2018-11-23T01:52:28.910Z,38.70
2018-11-23T01:54:56.334Z,35.70
2018-11-23T01:57:23.750Z,36.33
2018-11-23T01:59:51.184Z,35.33
2018-11-23T02:02:18.592Z,36.77
2018-11-23T02:04:46.040Z,36.43
2018-11-23T02:07:13.453Z,37.10
2018-11-23T02:09:40.890Z,38.23
2018-11-23T02:12:08.289Z,34.47
2018-11-23T02:14:35.684Z,34.70
2018-11-23T02:17:03.104Z,35.23
2018-11-23T02:19:30.501Z,34.77
2018-11-23T02:21:57.942Z,37.20
2018-11-23T02:24:25.338Z,38.23
2018-11-23T02:26:52.764Z,36.57
2018-11-23T02:29:20.189Z,35.60
2018-11-23T02:31:47.606Z,37.43
2018-11-23T02:34:15.011Z,36.70
2018-11-23T02:36:42.437Z,40.57
2018-11-23T02:39:09.861Z,40.90
2018-11-23T02:41:37.266Z,37.33
2018-11-23T02:44:04.693Z,38.67
2018-11-23T02:46:32.123Z,37.37
2018-11-23T02:48:59.517Z,38.77
2018-11-23T02:51:26.924Z,39.63
2018-11-23T02:53:54.340Z,38.67
2018-11-23T02:56:21.734Z,39.50
2018-11-23T02:58:49.162Z,37.37
2018-11-23T03:01:16.562Z,41.00
2018-11-23T03:03:43.983Z,36.27
2018-11-23T03:06:11.387Z,39.30
2018-11-23T03:08:38.825Z,39.83
2018-11-23T03:11:06.235Z,36.03
2018-11-23T03:13:33.632Z,41.17
2018-11-23T03:16:01.063Z,35.87
2018-11-23T03:18:28.493Z,36.67
2018-11-23T03:20:55.914Z,38.30
2018-11-23T03:23:23.348Z,35.83
2018-11-23T03:25:50.760Z,35.73
2018-11-23T03:28:18.154Z,33.00
2018-11-23T03:30:45.580Z,34.27
2018-11-23T03:33:12.993Z,34.00
2018-11-23T03:35:40.403Z,35.30
2018-11-23T03:38:07.815Z,35.87
2018-11-23T03:40:35.245Z,33.60
2018-11-23T03:43:02.654Z,33.30
2018-11-23T03:45:30.050Z,34.93
2018-11-23T03:47:57.578Z,37.00
2018-11-23T03:50:24.998Z,36.30
2018-11-23T03:52:52.416Z,33.67
2018-11-23T03:55:19.831Z,37.83
2018-11-23T03:57:47.248Z,35.60
2018-11-23T04:00:17.414Z,36.63
2018-11-23T04:02:42.081Z,35.37
2018-11-23T04:05:09.504Z,36.17
2018-11-23T04:07:36.917Z,38.30
2018-11-23T04:10:04.319Z,34.90
2018-11-23T04:12:31.745Z,37.47
2018-11-23T04:14:59.181Z,37.07
2018-11-23T04:17:26.582Z,36.30
2018-11-23T04:19:54.017Z,37.90
2018-11-23T04:22:21.416Z,36.10
2018-11-23T04:24:48.842Z,37.20
2018-11-23T04:27:16.276Z,34.97
2018-11-23T04:29:43.706Z,35.20
2018-11-23T04:32:11.122Z,34.07
2018-11-23T04:34:38.544Z,36.50
2018-11-23T04:37:05.963Z,34.10
2018-11-23T04:39:33.384Z,33.73
2018-11-23T04:42:00.785Z,33.83
2018-11-23T04:44:28.209Z,34.83
2018-11-23T04:46:55.611Z,34.90
2018-11-23T04:49:23.044Z,32.37
2018-11-23T04:51:50.475Z,33.33
2018-11-23T04:54:17.875Z,34.30
2018-11-23T04:56:45.276Z,34.27
2018-11-23T04:59:12.712Z,31.73
2018-11-23T05:01:40.131Z,34.10
2018-11-23T05:04:07.552Z,35.60
2018-11-23T05:06:34.976Z,32.63
2018-11-23T05:09:02.382Z,34.27
2018-11-23T05:11:29.818Z,36.07
2018-11-23T05:13:57.248Z,34.90
2018-11-23T05:16:24.679Z,34.70
2018-11-23T05:18:52.111Z,34.73
2018-11-23T05:21:19.504Z,33.13
2018-11-23T05:23:46.954Z,34.70
2018-11-23T05:26:14.347Z,32.80
2018-11-23T05:28:41.780Z,34.77
2018-11-23T05:31:09.169Z,34.83
2018-11-23T05:33:36.617Z,33.17
2018-11-23T05:36:04.038Z,36.27
2018-11-23T05:38:31.447Z,34.10
2018-11-23T05:40:58.882Z,35.47
2018-11-23T05:43:26.275Z,35.97
2018-11-23T05:45:53.700Z,34.80
2018-11-23T05:48:26.799Z,35.87
2018-11-23T05:50:48.548Z,34.73
2018-11-23T05:53:15.999Z,36.97
2018-11-23T05:55:43.429Z,34.17
2018-11-23T05:58:10.863Z,34.30
2018-11-23T06:00:38.254Z,35.57
2018-11-23T06:03:05.682Z,35.27
2018-11-23T06:05:33.095Z,33.63
2018-11-23T06:08:00.518Z,35.30
2018-11-23T06:10:27.915Z,34.37
2018-11-23T06:12:55.341Z,34.83
2018-11-23T06:15:22.762Z,34.67
2018-11-23T06:17:50.183Z,32.67
2018-11-23T06:20:17.600Z,32.63
2018-11-23T06:22:45.034Z,34.50
2018-11-23T06:25:12.425Z,36.27
2018-11-23T06:27:39.859Z,34.33
2018-11-23T06:30:07.619Z,32.90
2018-11-23T06:32:53.397Z,33.53
2018-11-23T06:35:20.861Z,33.87
2018-11-23T06:37:48.268Z,33.87
2018-11-23T06:40:15.677Z,34.87
2018-11-23T06:42:43.097Z,33.07
2018-11-23T06:45:10.535Z,33.00
2018-11-23T06:47:37.933Z,32.03
2018-11-23T06:50:05.357Z,32.23
2018-11-23T06:52:32.768Z,32.20
2018-11-23T06:55:00.191Z,31.70
2018-11-23T06:57:27.613Z,33.03
2018-11-23T06:59:55.042Z,32.20
2018-11-23T07:02:22.436Z,30.73
2018-11-23T07:04:49.852Z,33.17
2018-11-23T07:07:17.256Z,32.53
2018-11-23T07:09:45.792Z,32.60
2018-11-23T07:12:13.227Z,33.03
2018-11-23T07:14:40.685Z,33.00
2018-11-23T07:17:08.101Z,33.53
2018-11-23T07:19:35.544Z,32.90
2018-11-23T07:22:02.958Z,34.33
2018-11-23T07:24:30.413Z,34.20
2018-11-23T07:26:57.837Z,35.97
2018-11-23T07:29:25.247Z,34.87
2018-11-23T07:31:52.643Z,34.37
2018-11-23T07:34:20.075Z,33.87
2018-11-23T07:36:47.491Z,36.70
2018-11-23T07:39:15.002Z,32.67
2018-11-23T07:42:00.714Z,32.87
2018-11-23T07:44:28.156Z,33.53
2018-11-23T07:46:55.566Z,32.20
2018-11-23T07:49:23.026Z,34.23
2018-11-23T07:51:50.464Z,33.77
2018-11-23T07:54:17.911Z,34.83
2018-11-23T07:56:45.294Z,33.73
2018-11-23T07:59:12.691Z,32.50
2018-11-23T08:01:40.119Z,33.90
2018-11-23T08:04:07.521Z,32.23
2018-11-23T08:06:35.000Z,31.67
2018-11-23T08:09:02.412Z,31.87
2018-11-23T08:11:29.835Z,34.00
2018-11-23T08:13:57.237Z,35.03
2018-11-23T08:16:24.669Z,33.67
2018-11-23T08:18:52.085Z,33.50
2018-11-23T08:21:19.514Z,34.53
2018-11-23T08:23:46.935Z,36.87
2018-11-23T08:26:14.372Z,39.60
2018-11-23T08:28:41.780Z,37.33
2018-11-23T08:31:09.222Z,34.43
2018-11-23T08:33:36.631Z,34.30
2018-11-23T08:36:04.067Z,33.73
2018-11-23T08:38:31.494Z,34.10
2018-11-23T08:40:58.913Z,36.67
2018-11-23T08:43:26.346Z,35.97
2018-11-23T08:45:53.756Z,34.03
2018-11-23T08:48:21.175Z,34.57
2018-11-23T08:50:48.616Z,36.13
2018-11-23T08:53:16.024Z,35.17
2018-11-23T08:55:43.417Z,36.27
2018-11-23T08:58:10.843Z,35.57
2018-11-23T09:00:38.267Z,34.47
2018-11-23T09:03:05.679Z,32.40
2018-11-23T09:05:33.111Z,33.50
2018-11-23T09:08:00.536Z,40.57
2018-11-23T09:10:27.947Z,39.07
2018-11-23T09:12:55.387Z,36.27
2018-11-23T09:15:22.802Z,38.93
2018-11-23T09:17:50.257Z,39.43
2018-11-23T09:20:17.693Z,41.07
2018-11-23T09:22:45.110Z,38.03
2018-11-23T09:25:12.516Z,39.40
2018-11-23T09:27:39.989Z,42.43
2018-11-23T09:30:07.389Z,40.33
2018-11-23T09:32:34.824Z,42.67
2018-11-23T09:35:02.243Z,42.33
2018-11-23T09:37:29.648Z,40.43
2018-11-23T09:39:57.056Z,40.27
2018-11-23T09:42:24.476Z,40.27
2018-11-23T09:44:51.896Z,39.67
2018-11-23T09:47:19.421Z,39.60
2018-11-23T09:49:46.844Z,39.80
2018-11-23T09:52:14.245Z,39.87
2018-11-23T09:54:41.679Z,38.27
2018-11-23T09:57:09.097Z,37.47
2018-11-23T09:59:36.501Z,36.40
2018-11-23T10:02:03.949Z,35.67
2018-11-23T10:04:31.356Z,35.93
2018-11-23T10:06:58.795Z,33.97
2018-11-23T10:09:26.228Z,36.17
2018-11-23T10:11:53.703Z,34.60
2018-11-23T10:14:21.073Z,35.50
2018-11-23T10:16:48.498Z,34.33
2018-11-23T10:19:15.904Z,35.93
2018-11-23T10:21:43.337Z,36.73
2018-11-23T10:24:10.742Z,34.83
2018-11-23T10:26:38.159Z,36.40
2018-11-23T10:29:05.624Z,36.20
2018-11-23T10:31:33.058Z,35.73
2018-11-23T10:34:02.596Z,34.63
2018-11-23T10:36:30.004Z,34.37
2018-11-23T10:38:57.422Z,33.17
2018-11-23T10:41:24.849Z,33.63
2018-11-23T10:43:52.277Z,32.50
2018-11-23T10:46:19.672Z,29.57
2018-11-23T10:48:47.091Z,30.83
2018-11-23T10:51:14.505Z,28.37
2018-11-23T10:53:41.937Z,29.40
2018-11-23T10:56:09.369Z,28.67
2018-11-23T10:58:36.803Z,28.07
2018-11-23T11:01:04.252Z,29.17
2018-11-23T11:03:31.650Z,25.37
2018-11-23T11:05:59.045Z,26.93
2018-11-23T11:08:26.472Z,25.57
2018-11-23T11:10:53.868Z,26.57
2018-11-23T11:13:21.298Z,26.33
2018-11-23T11:15:48.700Z,26.20
2018-11-23T11:18:16.138Z,25.87
2018-11-23T11:20:43.540Z,24.57
2018-11-23T11:23:10.949Z,24.90
2018-11-23T11:25:38.382Z,26.67
2018-11-23T11:28:05.822Z,24.87
2018-11-23T11:30:33.265Z,26.47
2018-11-23T11:33:00.731Z,26.90
2018-11-23T11:35:28.160Z,27.20
2018-11-23T11:37:55.577Z,26.33
2018-11-23T11:40:23.004Z,28.00
2018-11-23T11:42:50.412Z,24.97
2018-11-23T11:45:17.843Z,30.30
2018-11-23T11:47:45.259Z,29.60
2018-11-23T11:50:12.679Z,28.97
2018-11-23T11:52:40.083Z,29.37
2018-11-23T11:55:07.529Z,27.20
2018-11-23T11:57:34.964Z,29.33
2018-11-23T12:00:02.365Z,27.50
2018-11-23T12:02:29.799Z,27.93
2018-11-23T12:04:57.221Z,27.77
2018-11-23T12:07:24.641Z,27.30
2018-11-23T12:09:52.057Z,26.70
2018-11-23T12:12:19.471Z,28.80
2018-11-23T12:14:46.910Z,26.70
2018-11-23T12:17:14.313Z,27.50
2018-11-23T12:19:41.840Z,27.13
2018-11-23T12:22:09.252Z,28.70
2018-11-23T12:24:36.689Z,27.73
2018-11-23T12:27:04.091Z,29.40
2018-11-23T12:29:31.528Z,29.27
2018-11-23T12:31:58.931Z,30.00
2018-11-23T12:34:26.361Z,29.70
2018-11-23T12:36:53.768Z,31.27
2018-11-23T12:39:21.209Z,29.20
2018-11-23T12:41:48.614Z,28.57
2018-11-23T12:44:16.053Z,29.07
2018-11-23T12:46:43.488Z,30.53
2018-11-23T12:49:10.927Z,28.23
2018-11-23T12:51:38.351Z,27.03
2018-11-23T12:54:05.772Z,28.93
2018-11-23T12:56:33.178Z,28.33
2018-11-23T12:59:00.643Z,26.50
2018-11-23T13:01:28.100Z,28.23
2018-11-23T13:03:55.514Z,27.37
2018-11-23T13:06:22.955Z,26.07
2018-11-23T13:08:50.363Z,24.00
2018-11-23T13:11:17.796Z,24.60
2018-11-23T13:13:45.229Z,25.27
2018-11-23T13:16:12.653Z,24.63
2018-11-23T13:18:40.077Z,23.87
2018-11-23T13:21:07.503Z,25.57
2018-11-23T13:23:34.932Z,23.17
2018-11-23T13:26:02.352Z,24.63
2018-11-23T13:28:29.790Z,24.43
2018-11-23T13:30:57.223Z,26.43
2018-11-23T13:33:24.624Z,24.17
2018-11-23T13:35:52.066Z,23.70
2018-11-23T13:38:19.486Z,21.60
2018-11-23T13:40:46.891Z,21.87
2018-11-23T13:43:14.306Z,23.40
2018-11-23T13:45:41.716Z,22.93
2018-11-23T13:48:09.147Z,21.73
2018-11-23T13:50:36.545Z,21.73
2018-11-23T13:53:03.944Z,21.10
2018-11-23T13:55:31.368Z,20.80
2018-11-23T13:57:58.776Z,21.17
2018-11-23T14:00:26.187Z,19.57
2018-11-23T14:02:53.603Z,20.37
2018-11-23T14:05:21.042Z,19.80
2018-11-23T14:07:48.458Z,19.23
2018-11-23T14:10:15.879Z,17.53
2018-11-23T14:12:43.305Z,17.23
2018-11-23T14:15:10.723Z,17.70
2018-11-23T14:17:38.220Z,17.57
2018-11-23T14:20:05.650Z,18.87
2018-11-23T14:22:33.053Z,19.67
2018-11-23T14:25:00.477Z,19.40
2018-11-23T14:27:27.886Z,19.30
2018-11-23T14:29:55.319Z,20.57
2018-11-23T14:32:23.324Z,19.87
2018-11-23T14:34:50.718Z,21.70
2018-11-23T14:37:18.125Z,21.43
2018-11-23T14:39:45.562Z,21.13
2018-11-23T14:42:12.969Z,22.33
2018-11-23T14:44:40.394Z,21.77
2018-11-23T14:47:07.799Z,23.30
2018-11-23T14:49:35.224Z,23.13
2018-11-23T14:52:02.654Z,22.83
2018-11-23T14:54:30.058Z,22.50
2018-11-23T14:56:57.492Z,22.77
2018-11-23T14:59:24.895Z,22.63
2018-11-23T15:01:52.335Z,24.07
2018-11-23T15:04:19.743Z,22.83
2018-11-23T15:06:47.180Z,23.37
2018-11-23T15:09:14.616Z,22.87
2018-11-23T15:11:42.026Z,23.13
2018-11-23T15:14:09.461Z,24.10
2018-11-23T15:16:36.866Z,22.77
2018-11-23T15:19:04.306Z,23.37
2018-11-23T15:21:31.721Z,22.97
2018-11-23T15:24:00.876Z,24.33
2018-11-23T15:26:26.570Z,21.33
2018-11-23T15:28:54.011Z,26.33
2018-11-23T15:31:21.439Z,25.63
2018-11-23T15:33:48.866Z,24.07
2018-11-23T15:36:16.275Z,29.10
2018-11-23T15:38:43.722Z,28.30
2018-11-23T15:41:11.155Z,27.17
2018-11-23T15:43:38.574Z,26.53
2018-11-23T15:46:06.029Z,26.13
2018-11-23T15:48:33.429Z,26.80
2018-11-23T15:51:00.859Z,26.47
2018-11-23T15:53:28.289Z,27.90
2018-11-23T15:55:55.718Z,28.47
2018-11-23T15:58:23.116Z,25.90
2018-11-23T16:00:50.545Z,23.70
2018-11-23T16:03:17.974Z,23.80
2018-11-23T16:05:45.413Z,24.43
2018-11-23T16:08:12.821Z,22.63
2018-11-23T16:10:40.307Z,23.13
2018-11-23T16:13:11.490Z,23.53
2018-11-23T16:15:35.106Z,26.43
2018-11-23T16:18:02.550Z,28.63
2018-11-23T16:20:30.008Z,27.60
2018-11-23T16:22:57.428Z,33.67
2018-11-23T16:25:25.017Z,25.40
2018-11-23T16:27:52.427Z,25.83
2018-11-23T16:30:19.847Z,23.67
2018-11-23T16:32:47.289Z,28.43
2018-11-23T16:35:14.815Z,24.03
2018-11-23T16:37:42.239Z,22.73
2018-11-23T16:40:09.651Z,22.90
2018-11-23T16:42:37.085Z,24.30
2018-11-23T16:45:04.526Z,24.37
2018-11-23T16:47:31.936Z,22.93
2018-11-23T16:49:59.378Z,28.10
2018-11-23T16:52:26.809Z,25.07
2018-11-23T16:54:54.623Z,25.30
2018-11-23T16:57:22.054Z,24.30
2018-11-23T16:59:50.313Z,26.20
2018-11-23T17:02:17.734Z,26.37
2018-11-23T17:04:45.238Z,24.93
2018-11-23T17:07:13.079Z,26.27
2018-11-23T17:09:40.231Z,27.30
2018-11-23T17:12:07.605Z,25.77
2018-11-23T17:14:35.022Z,25.33
2018-11-23T17:17:02.429Z,26.10
2018-11-23T17:19:29.858Z,28.27
2018-11-23T17:21:57.272Z,28.63
2018-11-23T17:24:24.699Z,27.63
2018-11-23T17:26:52.093Z,28.07
2018-11-23T17:29:23.215Z,25.80
2018-11-23T17:31:46.924Z,26.27
2018-11-23T17:34:14.338Z,26.10
2018-11-23T17:36:41.772Z,28.17
2018-11-23T17:39:09.272Z,27.40
2018-11-23T17:41:36.679Z,28.80
2018-11-23T17:44:05.056Z,28.13
2018-11-23T17:46:32.481Z,28.93
2018-11-23T17:48:59.909Z,28.23
2018-11-23T17:51:27.328Z,28.80
2018-11-23T17:53:54.751Z,31.67
2018-11-23T17:56:22.153Z,28.93
2018-11-23T17:58:49.577Z,28.67
2018-11-23T18:01:17.054Z,30.50
2018-11-23T18:03:44.482Z,31.03
2018-11-23T18:06:11.911Z,28.53
2018-11-23T18:08:39.320Z,30.03
2018-11-23T18:11:06.759Z,32.70
2018-11-23T18:13:34.166Z,32.00
2018-11-23T18:16:01.577Z,32.40
2018-11-23T18:18:29.009Z,32.13
2018-11-23T18:20:56.419Z,33.07
2018-11-23T18:23:23.849Z,33.63
2018-11-23T18:25:51.256Z,33.70
2018-11-23T18:28:18.681Z,33.93
2018-11-23T18:30:46.085Z,32.77
2018-11-23T18:33:13.484Z,32.67
2018-11-23T18:35:40.921Z,33.17
2018-11-23T18:38:08.386Z,34.20
2018-11-23T18:40:37.547Z,31.87
2018-11-23T18:43:03.298Z,33.40
2018-11-23T18:45:30.687Z,36.47
2018-11-23T18:47:58.097Z,32.60
2018-11-23T18:50:25.536Z,33.90
2018-11-23T18:52:52.956Z,35.20
2018-11-23T18:55:20.387Z,33.93
2018-11-23T18:57:47.859Z,33.47
2018-11-23T19:00:15.215Z,33.43
2018-11-23T19:02:42.639Z,34.57
2018-11-23T19:05:10.107Z,33.63
2018-11-23T19:07:37.506Z,32.43
2018-11-23T19:10:04.945Z,35.73
2018-11-23T19:12:32.362Z,34.30
2018-11-23T19:14:59.782Z,33.57
2018-11-23T19:17:27.196Z,33.90
2018-11-23T19:19:54.670Z,33.03
2018-11-23T19:22:22.097Z,34.50
2018-11-23T19:24:49.537Z,36.13
2018-11-23T19:27:16.989Z,33.10
2018-11-23T19:29:44.494Z,34.27
2018-11-23T19:32:11.891Z,37.40
2018-11-23T19:34:39.315Z,35.17
2018-11-23T19:37:06.783Z,34.13
2018-11-23T19:39:34.195Z,34.87
2018-11-23T19:42:01.633Z,33.30
2018-11-23T19:44:29.037Z,34.27
2018-11-23T19:46:56.466Z,33.43
2018-11-23T19:49:23.874Z,33.43
2018-11-23T19:51:51.306Z,35.13
2018-11-23T19:54:18.755Z,33.30
2018-11-23T19:56:46.196Z,34.40
2018-11-23T19:59:13.632Z,34.13
2018-11-23T20:01:41.051Z,38.47
2018-11-23T20:04:08.501Z,47.97
2018-11-23T20:06:38.609Z,45.27
2018-11-23T20:09:03.335Z,40.40
2018-11-23T20:11:30.751Z,37.83
2018-11-23T20:13:58.211Z,40.67
2018-11-23T20:16:25.635Z,45.23
2018-11-23T20:18:53.053Z,42.30
2018-11-23T20:21:20.505Z,40.93
2018-11-23T20:23:47.937Z,42.10
2018-11-23T20:26:15.344Z,41.33
2018-11-23T20:28:43.697Z,36.57
2018-11-23T20:31:11.134Z,38.17
2018-11-23T20:33:38.549Z,38.70
2018-11-23T20:36:05.991Z,38.63
2018-11-23T20:38:33.448Z,37.73
2018-11-23T20:41:00.894Z,38.43
2018-11-23T20:43:28.348Z,37.10
2018-11-23T20:45:55.782Z,37.50
2018-11-23T20:48:23.218Z,38.50
2018-11-23T20:50:50.627Z,38.60
2018-11-23T20:53:18.068Z,36.23
2018-11-23T20:55:45.495Z,37.73
2018-11-23T20:58:12.939Z,34.20
2018-11-23T21:00:40.394Z,36.37
2018-11-23T21:03:07.835Z,35.70
2018-11-23T21:05:35.244Z,36.90
2018-11-23T21:08:02.680Z,37.37
2018-11-23T21:10:30.102Z,37.00
2018-11-23T21:12:57.517Z,38.47
2018-11-23T21:15:24.959Z,37.67
2018-11-23T21:17:52.391Z,34.57
2018-11-23T21:20:19.801Z,37.87
2018-11-23T21:22:47.241Z,35.70
2018-11-23T21:25:14.643Z,38.03
2018-11-23T21:27:42.061Z,37.33
2018-11-23T21:30:09.539Z,37.80
2018-11-23T21:32:36.990Z,37.40
2018-11-23T21:35:04.391Z,35.83
2018-11-23T21:37:31.798Z,36.50
2018-11-23T21:39:59.245Z,36.23
2018-11-23T21:42:26.677Z,37.47
2018-11-23T21:44:54.120Z,38.57
2018-11-23T21:47:21.780Z,35.33
2018-11-23T21:49:49.232Z,32.97
2018-11-23T21:52:16.648Z,35.63
2018-11-23T21:54:44.124Z,37.30
2018-11-23T21:57:11.569Z,35.90
2018-11-23T21:59:38.995Z,35.60
2018-11-23T22:02:07.078Z,36.77
2018-11-23T22:04:33.889Z,36.03
2018-11-23T22:07:01.294Z,34.33
2018-11-23T22:09:28.754Z,35.23
2018-11-23T22:11:56.167Z,38.10
2018-11-23T22:14:23.588Z,34.87
2018-11-23T22:16:50.988Z,36.23
2018-11-23T22:19:18.401Z,36.87
2018-11-23T22:21:45.812Z,37.07
2018-11-23T22:24:13.259Z,40.43
2018-11-23T22:26:40.658Z,39.20
2018-11-23T22:29:08.090Z,40.70
2018-11-23T22:31:35.497Z,37.77
2018-11-23T22:34:02.935Z,35.13
2018-11-23T22:36:30.338Z,36.17
2018-11-23T22:38:57.753Z,34.23
2018-11-23T22:41:25.176Z,37.07
2018-11-23T22:43:52.596Z,34.83
2018-11-23T22:46:20.020Z,36.10
2018-11-23T22:48:47.451Z,34.87
2018-11-23T22:51:14.850Z,37.47
2018-11-23T22:53:42.284Z,36.80
2018-11-23T22:56:09.693Z,34.77
2018-11-23T22:58:37.085Z,35.80
2018-11-23T23:01:04.561Z,33.57
2018-11-23T23:03:31.933Z,32.63
2018-11-23T23:06:00.108Z,37.17
2018-11-23T23:08:26.809Z,36.43
2018-11-23T23:10:54.217Z,37.47
2018-11-23T23:13:21.647Z,35.37
2018-11-23T23:15:49.069Z,31.80
2018-11-23T23:18:16.489Z,34.33
2018-11-23T23:20:43.892Z,38.60
2018-11-23T23:23:11.301Z,35.60
2018-11-23T23:25:38.805Z,37.00
2018-11-23T23:28:06.211Z,37.63
2018-11-23T23:30:33.633Z,36.87
2018-11-23T23:33:01.074Z,37.70
2018-11-23T23:35:28.535Z,35.00
2018-11-23T23:37:55.949Z,31.00
2018-11-23T23:40:23.365Z,30.23
2018-11-23T23:42:50.795Z,31.60
2018-11-23T23:45:18.270Z,33.55
2018-11-23T23:47:45.696Z,35.13
2018-11-23T23:50:13.081Z,32.07
2018-11-23T23:52:40.517Z,32.00
2018-11-23T23:55:07.911Z,30.20
2018-11-23T23:57:35.330Z,30.57
